Time;durP1;ratioP1;P1;durP2;ratioP2;P2;SDS_P1;SDS_P2;PMS_P1;PMS_P2;Temp;Humidity;BMP_temperature;BMP_pressure;BME280_temperature;BME280_humidity;BME280_pressure;Samples;Min_cycle;Max_cycle;Signal;HPM_P1;HPM_P2
2024/02/09 00:00:54;;;;;;;5.87;2.60;;;10.60;8.80;;;;;;5032607;28;20468;-70
2024/02/09 00:03:21;;;;;;;12.10;2.80;;;10.60;7.90;;;;;;5033496;28;20455;-69
2024/02/09 00:05:50;;;;;;;6.63;2.60;;;10.70;7.60;;;;;;5033607;28;20444;-69
2024/02/09 00:08:17;;;;;;;10.17;2.80;;;10.70;7.50;;;;;;5033830;28;20513;-70
2024/02/09 00:10:47;;;;;;;7.10;3.60;;;10.70;7.60;;;;;;5033269;28;20846;-69
2024/02/09 00:13:14;;;;;;;5.43;2.70;;;10.70;7.10;;;;;;5032679;28;20431;-69
2024/02/09 00:15:47;;;;;;;7.00;2.93;;;10.70;6.80;;;;;;5032749;28;20463;-69
2024/02/09 00:18:16;;;;;;;4.83;2.30;;;10.70;6.60;;;;;;5032429;28;20620;-68
2024/02/09 00:20:43;;;;;;;9.30;2.37;;;10.70;5.70;;;;;;5031485;28;20415;-69
2024/02/09 00:23:08;;;;;;;7.33;2.00;;;10.70;5.90;;;;;;5030497;28;20720;-68
2024/02/09 00:25:37;;;;;;;4.63;2.50;;;10.70;6.50;;;;;;5031725;28;20437;-69
2024/02/09 00:28:05;;;;;;;4.47;2.47;;;10.70;7.40;;;;;;5031600;28;20189;-69
2024/02/09 00:30:32;;;;;;;5.80;2.30;;;10.70;8.00;;;;;;5032240;28;20783;-69
2024/02/09 00:33:03;;;;;;;5.60;2.40;;;10.70;8.40;;;;;;5032130;28;20433;-68
2024/02/09 00:35:29;;;;;;;5.53;3.10;;;10.60;8.90;;;;;;5031094;28;20485;-68
2024/02/09 00:37:55;;;;;;;8.97;3.60;;;10.60;9.30;;;;;;5032439;28;20519;-69
2024/02/09 00:40:24;;;;;;;4.73;2.30;;;10.60;8.80;;;;;;5031738;28;20514;-69
2024/02/09 00:42:51;;;;;;;4.10;2.23;;;10.70;9.00;;;;;;5035416;28;20421;-69
2024/02/09 00:45:18;;;;;;;6.13;2.90;;;10.60;10.10;;;;;;5035136;28;20430;-69
2024/02/09 00:47:46;;;;;;;7.40;3.57;;;10.70;10.10;;;;;;5036319;28;20415;-69
2024/02/09 00:50:11;;;;;;;7.87;3.83;;;10.60;10.10;;;;;;5036945;28;20425;-69
2024/02/09 00:52:37;;;;;;;4.40;2.60;;;10.60;11.10;;;;;;5037831;28;20548;-69
2024/02/09 00:55:03;;;;;;;5.40;2.93;;;10.60;11.90;;;;;;5038289;28;20675;-69
2024/02/09 00:57:29;;;;;;;5.37;2.20;;;10.60;12.40;;;;;;5037375;28;20452;-69
2024/02/09 00:59:56;;;;;;;9.63;3.30;;;10.50;13.30;;;;;;5036816;28;20250;-69
2024/02/09 01:02:24;;;;;;;7.83;2.43;;;10.50;14.40;;;;;;5035387;28;20163;-69
2024/02/09 01:04:50;;;;;;;5.00;2.57;;;10.40;14.30;;;;;;5035323;28;20516;-70
2024/02/09 01:07:16;;;;;;;3.90;2.30;;;10.40;14.30;;;;;;5033781;28;20473;-69
2024/02/09 01:09:42;;;;;;;5.30;2.73;;;10.40;15.00;;;;;;5034794;28;20417;-70
2024/02/09 02:45:11;;;;;;;3.77;1.80;;;10.50;22.70;;;;;;5032951;28;20812;-69
2024/02/09 02:47:40;;;;;;;3.93;2.00;;;10.50;22.90;;;;;;5031096;28;20266;-69
2024/02/09 03:06:33;;;;;;;7.20;1.67;;;10.40;25.40;;;;;;5031777;28;20464;-69
2024/02/09 03:08:59;;;;;;;5.57;2.10;;;10.40;25.20;;;;;;5031835;28;20424;-70
2024/02/09 03:11:24;;;;;;;6.53;1.70;;;10.40;25.70;;;;;;5032119;28;20449;-70
2024/02/09 03:13:50;;;;;;;5.40;1.50;;;10.40;25.20;;;;;;5032094;28;20520;-70
2024/02/09 03:16:17;;;;;;;2.93;1.47;;;10.40;25.60;;;;;;5032055;28;20217;-70
2024/02/09 03:18:44;;;;;;;5.50;1.77;;;10.40;25.00;;;;;;5030379;28;20217;-70
2024/02/09 03:21:25;;;;;;;3.40;2.30;;;10.40;24.80;;;;;;5032099;28;20750;-69
2024/02/09 03:23:53;;;;;;;4.83;1.93;;;10.40;25.10;;;;;;5031730;28;20940;-70
2024/02/09 03:26:22;;;;;;;6.13;2.47;;;10.30;26.00;;;;;;5030524;28;20434;-70
2024/02/09 03:28:51;;;;;;;3.10;1.60;;;10.30;26.40;;;;;;5031586;28;20406;-69
2024/02/09 03:31:17;;;;;;;4.60;2.23;;;10.30;26.50;;;;;;5032003;28;20445;-70
2024/02/09 03:33:43;;;;;;;3.40;1.90;;;10.30;26.00;;;;;;5032144;28;20437;-69
2024/02/09 03:36:10;;;;;;;5.27;1.60;;;10.30;26.20;;;;;;5031816;28;20253;-70
2024/02/09 03:38:35;;;;;;;3.97;1.97;;;10.30;27.00;;;;;;5031433;28;20202;-70
2024/02/09 03:41:02;;;;;;;3.03;1.70;;;10.30;26.50;;;;;;5031494;28;20414;-68
2024/02/09 03:43:27;;;;;;;3.30;1.20;;;10.30;26.20;;;;;;5032123;28;20528;-71
2024/02/09 03:45:53;;;;;;;2.60;1.50;;;10.30;26.00;;;;;;5030975;28;20548;-70
2024/02/09 03:48:18;;;;;;;3.00;1.60;;;10.30;26.70;;;;;;5031409;28;20175;-69
2024/02/09 03:50:44;;;;;;;4.43;1.20;;;10.30;26.90;;;;;;5031671;28;20614;-68
2024/02/09 03:53:12;;;;;;;2.63;1.10;;;10.30;27.00;;;;;;5032012;28;20642;-70
2024/02/09 03:55:39;;;;;;;2.50;1.20;;;10.30;27.00;;;;;;5032203;28;20273;-71
2024/02/09 03:58:06;;;;;;;2.53;1.33;;;10.30;27.00;;;;;;5031716;28;20472;-69
2024/02/09 04:00:31;;;;;;;2.40;1.40;;;10.30;26.20;;;;;;5033594;28;20496;-68
2024/02/09 04:02:57;;;;;;;3.63;1.13;;;10.30;26.50;;;;;;5033116;28;20532;-69
2024/02/09 04:05:23;;;;;;;3.03;1.97;;;10.30;26.90;;;;;;5032908;28;20191;-69
2024/02/09 04:07:50;;;;;;;2.90;1.10;;;10.30;26.30;;;;;;5032708;28;20182;-69
2024/02/09 04:10:18;;;;;;;3.20;1.63;;;10.40;26.30;;;;;;5032786;28;20179;-70
2024/02/09 04:12:44;;;;;;;3.70;1.97;;;10.40;26.20;;;;;;5032452;28;20425;-70
2024/02/09 04:15:11;;;;;;;4.87;1.43;;;10.40;26.20;;;;;;5031583;28;20453;-70
2024/02/09 04:17:37;;;;;;;2.73;1.07;;;10.40;26.60;;;;;;5034053;28;20664;-69
2024/02/09 04:20:03;;;;;;;3.13;1.23;;;10.40;27.00;;;;;;5034565;28;20433;-70
2024/02/09 04:22:29;;;;;;;2.00;1.03;;;10.40;27.00;;;;;;5035910;28;20414;-71
2024/02/09 04:24:56;;;;;;;2.07;1.10;;;10.40;26.30;;;;;;5035492;28;20429;-70
2024/02/09 04:27:22;;;;;;;2.80;1.27;;;10.40;25.30;;;;;;5034343;28;20477;-70
2024/02/09 04:29:49;;;;;;;2.70;1.40;;;10.40;25.30;;;;;;5036879;28;20920;-70
2024/02/09 04:32:15;;;;;;;3.10;1.47;;;10.40;25.30;;;;;;5036320;28;20179;-71
2024/02/09 04:34:41;;;;;;;2.23;1.20;;;10.40;26.20;;;;;;5036120;28;20852;-71
2024/02/09 04:37:06;;;;;;;4.20;1.50;;;10.40;25.40;;;;;;5035416;28;20462;-71
2024/02/09 04:39:32;;;;;;;2.30;1.00;;;10.40;25.00;;;;;;5034821;28;20270;-72
2024/02/09 04:41:58;;;;;;;3.60;1.50;;;10.40;24.90;;;;;;5035903;28;20167;-68
2024/02/09 04:44:24;;;;;;;4.63;1.40;;;10.40;25.20;;;;;;5033700;28;20199;-68
2024/02/09 04:46:50;;;;;;;3.07;1.80;;;10.50;25.30;;;;;;5034816;28;20409;-69
2024/02/09 04:49:16;;;;;;;5.53;2.17;;;10.50;25.70;;;;;;5034798;28;20229;-69
2024/02/09 04:51:46;;;;;;;3.00;1.50;;;10.40;25.90;;;;;;5033325;28;20179;-70
2024/02/09 04:54:12;;;;;;;2.13;1.10;;;10.40;26.90;;;;;;5033483;28;20183;-69
2024/02/09 04:56:38;;;;;;;2.87;1.23;;;10.50;25.80;;;;;;5034547;28;20496;-69
2024/02/09 04:59:07;;;;;;;2.27;1.10;;;10.40;25.10;;;;;;5033068;28;20421;-69
2024/02/09 05:01:37;;;;;;;2.33;1.03;;;10.40;25.70;;;;;;5034629;28;20417;-69
2024/02/09 05:04:03;;;;;;;1.67;0.83;;;10.40;25.30;;;;;;5033134;28;20810;-69
2024/02/09 05:06:29;;;;;;;2.83;1.10;;;10.40;24.60;;;;;;5034270;28;20455;-70
2024/02/09 05:08:57;;;;;;;2.00;1.00;;;10.40;24.20;;;;;;5034083;28;21005;-70
2024/02/09 05:11:28;;;;;;;4.70;1.50;;;10.50;23.00;;;;;;5036736;28;20421;-70
2024/02/09 05:13:54;;;;;;;4.33;0.87;;;10.50;20.70;;;;;;5036125;28;20748;-70
2024/02/09 05:16:21;;;;;;;1.83;1.00;;;10.50;20.60;;;;;;5036507;28;20476;-69
2024/02/09 05:18:47;;;;;;;1.60;0.60;;;10.60;20.90;;;;;;5036271;28;20202;-69
2024/02/09 05:21:16;;;;;;;1.70;0.60;;;10.60;16.40;;;;;;5038286;28;20837;-69
2024/02/09 05:23:47;;;;;;;3.43;1.47;;;10.70;15.70;;;;;;5036132;28;20416;-69
2024/02/09 05:26:13;;;;;;;2.10;1.03;;;10.80;13.90;;;;;;5035156;28;20454;-69
2024/02/09 05:28:42;;;;;;;3.20;1.63;;;10.80;14.90;;;;;;5034216;28;20418;-72
2024/02/09 05:31:19;;;;;;;2.53;1.40;;;10.80;14.70;;;;;;5035306;28;20484;-69
2024/02/09 05:33:47;;;;;;;2.53;1.10;;;10.80;12.00;;;;;;5036125;28;20422;-68
2024/02/09 05:36:26;;;;;;;4.40;1.60;;;10.90;10.30;;;;;;5035820;28;20827;-69
2024/02/09 05:38:53;;;;;;;3.37;1.43;;;11.00;7.10;;;;;;5035835;28;20422;-69
2024/02/09 05:41:23;;;;;;;2.17;0.80;;;11.10;6.70;;;;;;5034049;28;20779;-68
2024/02/09 05:43:54;;;;;;;2.90;1.77;;;11.10;8.50;;;;;;5035258;28;20434;-68
2024/02/09 05:46:20;;;;;;;3.77;1.90;;;11.10;8.60;;;;;;5035308;28;20430;-69
2024/02/09 05:48:49;;;;;;;2.20;0.90;;;11.00;8.10;;;;;;5035337;28;20411;-69
2024/02/09 05:51:17;;;;;;;2.47;1.30;;;11.00;9.90;;;;;;5034785;28;20473;-68
2024/02/09 05:53:43;;;;;;;4.80;1.50;;;10.90;10.10;;;;;;5035210;28;20441;-70
2024/02/09 05:56:19;;;;;;;4.40;1.20;;;11.00;8.50;;;;;;5034681;28;20423;-70
2024/02/09 05:58:46;;;;;;;2.80;1.00;;;11.00;9.50;;;;;;5034726;28;20544;-69
2024/02/09 06:01:13;;;;;;;4.33;0.90;;;11.00;7.20;;;;;;5033305;28;20416;-70
2024/02/09 06:03:41;;;;;;;2.00;0.83;;;11.00;7.60;;;;;;5034218;28;20415;-69
2024/02/09 06:06:10;;;;;;;3.20;1.40;;;11.00;7.60;;;;;;5033986;28;20433;-69
2024/02/09 06:08:36;;;;;;;2.10;1.10;;;11.00;7.20;;;;;;5033722;28;20504;-70
2024/02/09 06:11:03;;;;;;;2.37;1.23;;;11.00;7.00;;;;;;5034284;28;20446;-68
2024/02/09 06:13:30;;;;;;;2.20;1.00;;;11.00;6.20;;;;;;5032924;28;20426;-69
2024/02/09 06:15:58;;;;;;;2.77;1.00;;;11.10;7.30;;;;;;5034792;28;20924;-70
2024/02/09 06:18:27;;;;;;;3.73;1.33;;;11.00;5.20;;;;;;5032705;28;20565;-67
2024/02/09 06:20:53;;;;;;;3.00;1.30;;;11.00;7.30;;;;;;5033429;28;20432;-68
2024/02/09 06:23:23;;;;;;;2.30;1.03;;;11.10;5.70;;;;;;5034512;28;20422;-69
2024/02/09 06:25:49;;;;;;;2.40;0.80;;;11.10;5.70;;;;;;5032772;28;20435;-68
2024/02/09 06:28:19;;;;;;;3.57;1.50;;;11.10;5.80;;;;;;5034361;28;20928;-70
2024/02/09 06:30:47;;;;;;;1.90;0.90;;;11.10;5.30;;;;;;5033948;28;20414;-70
2024/02/09 06:33:19;;;;;;;2.80;1.27;;;11.10;4.90;;;;;;5034379;28;20415;-71
2024/02/09 06:35:48;;;;;;;2.37;0.93;;;11.10;4.60;;;;;;5036103;28;20461;-69
2024/02/09 06:38:17;;;;;;;5.40;1.10;;;11.10;4.00;;;;;;5034053;28;21009;-69
2024/02/09 06:40:43;;;;;;;2.53;1.00;;;11.10;2.00;;;;;;5032299;28;20439;-70
2024/02/09 06:43:09;;;;;;;4.40;0.90;;;11.20;2.20;;;;;;5034260;28;20410;-69
2024/02/09 06:45:35;;;;;;;1.70;0.87;;;11.20;2.10;;;;;;5034588;28;20473;-72
2024/02/09 06:48:03;;;;;;;3.43;1.30;;;11.30;2.40;;;;;;5033501;28;20176;-68
2024/02/09 06:50:29;;;;;;;2.27;1.20;;;11.20;2.80;;;;;;5034831;28;20421;-68
2024/02/09 06:52:55;;;;;;;3.53;1.20;;;11.30;3.00;;;;;;5034246;28;20468;-68
2024/02/09 06:55:22;;;;;;;3.93;1.93;;;11.30;3.30;;;;;;5034238;28;20443;-69
2024/02/09 06:57:48;;;;;;;3.97;1.50;;;11.30;3.40;;;;;;5035159;28;20249;-69
2024/02/09 07:00:20;;;;;;;2.70;1.60;;;11.30;4.00;;;;;;5036175;28;20465;-68
2024/02/09 07:02:51;;;;;;;7.87;1.63;;;11.30;4.00;;;;;;5034259;28;20403;-68
2024/02/09 07:05:19;;;;;;;2.47;1.00;;;11.30;3.10;;;;;;5034757;28;20429;-69
2024/02/09 07:07:47;;;;;;;2.70;1.77;;;11.30;2.70;;;;;;5034745;28;20416;-68
2024/02/09 07:10:14;;;;;;;3.27;1.90;;;11.30;2.20;;;;;;5033244;28;20439;-69
2024/02/09 07:12:43;;;;;;;3.30;1.40;;;11.30;3.80;;;;;;5029273;28;20454;-70
2024/02/09 07:15:09;;;;;;;2.73;1.50;;;11.30;3.80;;;;;;5025755;28;20526;-69
2024/02/09 07:17:35;;;;;;;3.17;2.40;;;11.40;2.80;;;;;;5033039;28;20586;-68
2024/02/09 07:20:03;;;;;;;3.40;1.43;;;11.50;3.40;;;;;;5017097;28;20515;-69
2024/02/09 07:22:31;;;;;;;3.63;1.37;;;11.60;3.10;;;;;;5013642;28;20206;-69
2024/02/09 07:24:58;;;;;;;3.80;1.73;;;11.60;1.80;;;;;;5012191;28;20984;-69
2024/02/09 07:27:23;;;;;;;2.40;1.17;;;11.60;2.10;;;;;;5012673;28;20419;-69
2024/02/09 07:29:49;;;;;;;2.23;1.00;;;11.70;2.10;;;;;;5022042;28;20418;-69
2024/02/09 07:32:14;;;;;;;5.47;1.67;;;11.70;1.90;;;;;;5032419;28;20614;-69
2024/02/09 07:34:41;;;;;;;3.20;1.13;;;11.70;1.80;;;;;;5029413;28;20208;-70
2024/02/09 07:37:07;;;;;;;2.70;1.20;;;11.70;1.90;;;;;;5027624;28;20606;-71
2024/02/09 07:39:33;;;;;;;3.30;1.33;;;11.70;1.90;;;;;;5027280;28;20449;-68
2024/02/09 07:41:59;;;;;;;5.30;1.50;;;11.70;1.80;;;;;;5026757;28;20475;-68
2024/02/09 07:44:27;;;;;;;2.60;1.17;;;11.70;2.40;;;;;;5027485;28;20433;-68
2024/02/09 07:46:55;;;;;;;3.50;1.40;;;11.70;1.90;;;;;;5027314;28;20770;-68
2024/02/09 07:49:24;;;;;;;7.20;1.20;;;11.70;1.80;;;;;;5026608;28;20430;-69
2024/02/09 07:51:50;;;;;;;3.23;1.43;;;11.70;1.00;;;;;;5025975;28;20435;-68
2024/02/09 07:54:15;;;;;;;3.37;1.50;;;11.70;1.00;;;;;;5025807;28;20613;-68
2024/02/09 07:56:41;;;;;;;4.10;1.57;;;11.70;1.00;;;;;;5027694;28;20850;-70
2024/02/09 07:59:07;;;;;;;2.50;1.50;;;11.80;1.00;;;;;;5036520;28;20197;-69
2024/02/09 08:01:32;;;;;;;3.90;1.37;;;11.80;1.00;;;;;;5020372;28;20218;-69
2024/02/09 08:03:58;;;;;;;3.80;1.63;;;11.80;1.00;;;;;;5025396;28;20221;-70
2024/02/09 08:06:24;;;;;;;2.90;1.37;;;11.90;1.00;;;;;;5035469;28;20207;-69
2024/02/09 08:08:52;;;;;;;10.17;1.73;;;12.00;1.00;;;;;;5033260;28;20261;-69
2024/02/09 08:11:22;;;;;;;3.10;1.90;;;12.10;1.00;;;;;;5019562;28;20435;-69
2024/02/09 08:13:51;;;;;;;3.53;1.50;;;12.20;1.00;;;;;;5028279;28;20437;-69
2024/02/09 08:16:21;;;;;;;7.30;2.60;;;12.30;1.00;;;;;;5027642;28;20654;-69
2024/02/09 08:18:47;;;;;;;4.20;1.47;;;12.40;1.00;;;;;;5025759;28;20467;-70
2024/02/09 08:21:13;;;;;;;2.90;1.57;;;12.50;1.00;;;;;;5028930;28;20428;-69
2024/02/09 08:23:39;;;;;;;3.07;1.97;;;12.60;1.00;;;;;;5025707;28;20532;-71
2024/02/09 08:26:10;;;;;;;2.10;1.10;;;12.70;1.00;;;;;;5024991;28;20264;-70
2024/02/09 08:28:43;;;;;;;3.40;1.40;;;12.90;1.00;;;;;;5026490;28;20451;-69
2024/02/09 08:31:14;;;;;;;3.13;1.20;;;13.00;1.00;;;;;;5027011;28;20496;-71
2024/02/09 08:33:41;;;;;;;2.70;1.70;;;13.10;1.00;;;;;;5028128;28;20564;-70
2024/02/09 08:36:09;;;;;;;2.93;1.30;;;13.20;1.00;;;;;;5027882;28;20469;-70
2024/02/09 08:38:35;;;;;;;2.97;1.63;;;13.40;1.00;;;;;;5026770;28;20819;-71
2024/02/09 08:41:02;;;;;;;5.20;1.73;;;13.70;1.00;;;;;;5019876;28;20435;-69
2024/02/09 08:43:29;;;;;;;2.53;1.40;;;13.90;1.00;;;;;;5026752;28;20528;-69
2024/02/09 08:45:54;;;;;;;3.60;1.40;;;14.10;1.00;;;;;;5026535;28;20442;-69
2024/02/09 08:48:23;;;;;;;3.00;1.60;;;14.20;1.00;;;;;;5026780;28;20501;-69
2024/02/09 08:50:49;;;;;;;3.80;1.23;;;14.40;1.00;;;;;;5027479;28;20209;-69
2024/02/09 08:53:15;;;;;;;2.63;1.17;;;14.50;1.00;;;;;;5026201;28;20440;-69
2024/02/09 08:55:40;;;;;;;3.80;1.73;;;14.50;1.00;;;;;;5026772;28;20941;-69
2024/02/09 08:58:07;;;;;;;2.30;1.37;;;14.70;1.00;;;;;;5025730;28;20202;-69
2024/02/09 09:00:33;;;;;;;2.40;1.27;;;14.70;1.00;;;;;;5026574;28;20175;-69
2024/02/09 09:02:59;;;;;;;3.10;1.23;;;14.60;1.00;;;;;;5027858;28;21004;-69
2024/02/09 09:05:26;;;;;;;3.30;1.40;;;14.80;1.00;;;;;;5030794;28;20880;-68
2024/02/09 09:07:52;;;;;;;3.30;1.00;;;15.00;1.00;;;;;;5028509;28;20467;-69
2024/02/09 09:10:17;;;;;;;2.10;1.20;;;15.20;1.00;;;;;;5033600;28;20534;-67
2024/02/09 09:12:43;;;;;;;2.67;1.30;;;15.10;1.00;;;;;;5032839;28;20187;-67
2024/02/09 09:15:09;;;;;;;2.10;1.10;;;15.00;1.00;;;;;;5033970;28;20223;-67
2024/02/09 09:17:34;;;;;;;3.93;1.50;;;15.00;1.00;;;;;;5032698;28;20199;-67
2024/02/09 09:20:00;;;;;;;2.80;1.40;;;15.00;1.00;;;;;;5034164;28;20179;-68
2024/02/09 09:22:26;;;;;;;3.33;1.17;;;14.90;1.00;;;;;;5034077;28;20229;-68
2024/02/09 09:24:51;;;;;;;1.83;1.17;;;15.00;1.00;;;;;;5034303;28;20209;-68
2024/02/09 09:27:20;;;;;;;2.53;1.53;;;15.10;1.00;;;;;;5033461;28;20715;-68
2024/02/09 09:29:46;;;;;;;4.27;1.87;;;15.40;1.00;;;;;;5034676;28;20194;-68
2024/02/09 09:32:11;;;;;;;2.10;1.20;;;15.60;1.00;;;;;;5034614;28;20425;-68
2024/02/09 09:34:37;;;;;;;3.10;1.80;;;15.90;1.00;;;;;;5034142;28;20273;-68
2024/02/09 09:37:04;;;;;;;3.20;1.30;;;15.80;1.00;;;;;;5034695;28;20209;-70
2024/02/09 09:39:30;;;;;;;2.40;1.30;;;15.70;1.00;;;;;;5034308;28;20183;-69
2024/02/09 09:41:56;;;;;;;3.00;1.47;;;15.60;1.00;;;;;;5034673;28;20475;-70
2024/02/09 09:44:26;;;;;;;2.00;1.30;;;15.60;1.00;;;;;;5038074;28;20285;-69
2024/02/09 09:46:52;;;;;;;5.47;2.37;;;15.60;1.00;;;;;;5034163;28;20233;-70
2024/02/09 09:49:19;;;;;;;2.27;1.10;;;15.50;1.00;;;;;;5032785;28;20505;-69
2024/02/09 09:51:50;;;;;;;2.83;1.10;;;15.50;1.00;;;;;;5032723;28;20463;-69
2024/02/09 09:54:21;;;;;;;3.20;1.57;;;15.40;1.00;;;;;;5033371;28;20425;-69
2024/02/09 09:56:51;;;;;;;3.10;1.50;;;15.30;1.00;;;;;;5031949;28;20516;-69
2024/02/09 09:59:20;;;;;;;2.20;1.37;;;15.30;1.00;;;;;;5032992;28;20433;-68
2024/02/09 10:01:49;;;;;;;1.87;1.20;;;15.20;1.00;;;;;;5031617;28;20489;-69
2024/02/09 10:04:15;;;;;;;8.23;1.40;;;15.10;1.00;;;;;;5033231;28;20409;-69
2024/02/09 10:06:42;;;;;;;4.43;1.63;;;15.00;1.00;;;;;;5033737;28;20944;-69
2024/02/09 10:09:12;;;;;;;2.97;1.40;;;15.00;1.00;;;;;;5033865;28;20414;-69
2024/02/09 10:11:40;;;;;;;4.83;1.70;;;15.00;1.00;;;;;;5033837;28;20479;-69
2024/02/09 10:14:14;;;;;;;2.50;1.30;;;14.90;1.00;;;;;;5033048;28;20442;-69
2024/02/09 10:16:40;;;;;;;2.87;1.50;;;14.90;1.00;;;;;;5032062;28;20414;-69
2024/02/09 10:19:06;;;;;;;1.90;1.30;;;15.00;1.00;;;;;;5033136;28;20403;-68
2024/02/09 10:21:34;;;;;;;3.13;2.00;;;15.10;1.00;;;;;;5033089;28;20456;-69
2024/02/09 10:24:00;;;;;;;2.10;1.30;;;15.20;1.00;;;;;;5033213;28;20254;-69
2024/02/09 10:26:26;;;;;;;1.90;1.10;;;15.30;1.00;;;;;;5033060;28;20835;-69
2024/02/09 10:28:54;;;;;;;7.93;1.80;;;15.30;1.00;;;;;;5032786;28;20179;-69
2024/02/09 10:31:24;;;;;;;1.70;0.87;;;15.30;1.00;;;;;;5031726;28;20301;-70
2024/02/09 10:33:49;;;;;;;2.03;1.13;;;15.30;1.00;;;;;;5032696;28;20417;-70
2024/02/09 10:36:16;;;;;;;2.80;1.33;;;15.30;1.00;;;;;;5028585;28;20422;-70
2024/02/09 10:38:42;;;;;;;1.70;1.00;;;15.10;1.00;;;;;;5028029;28;20207;-69
2024/02/09 10:41:11;;;;;;;2.33;1.37;;;15.10;1.00;;;;;;5029056;28;20418;-69
2024/02/09 10:43:41;;;;;;;4.10;1.40;;;15.10;1.00;;;;;;5028912;28;20446;-69
2024/02/09 10:46:08;;;;;;;3.43;1.00;;;15.00;1.00;;;;;;5030716;28;21027;-70
2024/02/09 10:48:37;;;;;;;2.17;1.10;;;15.00;1.00;;;;;;5031517;28;20925;-71
2024/02/09 10:51:05;;;;;;;8.70;1.27;;;15.00;1.00;;;;;;5032320;28;20417;-69
2024/02/09 10:53:35;;;;;;;2.77;1.10;;;15.10;1.00;;;;;;5032341;28;20410;-68
2024/02/09 10:56:03;;;;;;;1.97;1.27;;;15.20;1.00;;;;;;5032298;28;20453;-68
2024/02/09 10:58:35;;;;;;;2.13;1.13;;;15.30;1.00;;;;;;5032148;28;20461;-68
2024/02/09 11:01:04;;;;;;;1.97;1.03;;;15.20;1.00;;;;;;5032476;28;20414;-68
2024/02/09 11:03:33;;;;;;;1.90;1.10;;;15.10;1.00;;;;;;5032317;28;20448;-67
2024/02/09 11:06:02;;;;;;;5.20;1.20;;;15.10;1.00;;;;;;5032334;28;20434;-67
2024/02/09 11:08:29;;;;;;;6.00;1.77;;;15.20;1.00;;;;;;5030802;28;20452;-68
2024/02/09 11:11:02;;;;;;;2.97;1.60;;;15.30;1.00;;;;;;5034094;28;20925;-68
2024/02/09 11:13:27;;;;;;;3.33;1.57;;;15.40;1.00;;;;;;5034821;28;20784;-68
2024/02/09 11:15:58;;;;;;;2.90;1.30;;;15.40;1.00;;;;;;5033148;28;20533;-68
2024/02/09 11:18:35;;;;;;;2.10;1.23;;;15.20;1.00;;;;;;5034023;28;20547;-68
2024/02/09 11:21:20;;;;;;;5.20;1.60;;;15.10;1.00;;;;;;5033547;28;20416;-67
2024/02/09 11:23:46;;;;;;;3.63;1.47;;;15.10;1.00;;;;;;5034073;28;20925;-67
2024/02/09 11:26:13;;;;;;;3.60;1.20;;;15.20;1.00;;;;;;5033966;28;20441;-68
2024/02/09 11:28:40;;;;;;;1.70;1.10;;;15.50;1.00;;;;;;5032189;28;20179;-68
2024/02/09 11:31:10;;;;;;;3.03;1.13;;;15.60;1.00;;;;;;5032728;28;20414;-68
2024/02/09 11:33:36;;;;;;;2.40;1.50;;;15.70;1.00;;;;;;5033008;28;20988;-68
2024/02/09 11:36:03;;;;;;;2.77;1.23;;;15.70;1.00;;;;;;5032673;28;20426;-69
2024/02/09 11:38:28;;;;;;;2.10;1.30;;;15.60;1.00;;;;;;5032660;28;20462;-68
2024/02/09 11:40:54;;;;;;;2.03;1.30;;;15.70;1.00;;;;;;5033023;28;20765;-68
2024/02/09 11:43:20;;;;;;;1.83;1.10;;;15.60;1.00;;;;;;5032733;28;20254;-68
2024/02/09 11:45:45;;;;;;;2.90;1.50;;;15.30;1.00;;;;;;5032437;28;20429;-68
2024/02/09 11:48:14;;;;;;;3.07;1.30;;;15.30;1.00;;;;;;5032352;28;20263;-68
2024/02/09 11:50:40;;;;;;;3.70;1.13;;;15.10;1.00;;;;;;5033277;28;20182;-67
2024/02/09 11:53:07;;;;;;;2.90;1.90;;;15.10;1.00;;;;;;5032511;28;20422;-68
2024/02/09 11:55:38;;;;;;;2.00;1.20;;;15.00;1.00;;;;;;5031442;28;20253;-67
2024/02/09 11:58:04;;;;;;;2.63;1.43;;;14.90;1.00;;;;;;5032482;28;20493;-67
2024/02/09 12:00:30;;;;;;;3.50;2.10;;;15.00;1.00;;;;;;5032168;28;20454;-68
2024/02/09 12:02:58;;;;;;;2.23;1.10;;;15.00;1.00;;;;;;5030643;28;20179;-68
2024/02/09 12:05:24;;;;;;;3.73;2.03;;;14.80;1.00;;;;;;5031930;28;20198;-68
2024/02/09 12:07:50;;;;;;;3.03;1.60;;;14.80;1.00;;;;;;5032017;28;20414;-69
2024/02/09 12:10:17;;;;;;;4.23;1.30;;;15.00;1.00;;;;;;5030484;28;20266;-68
2024/02/09 12:12:42;;;;;;;2.10;1.30;;;14.90;1.00;;;;;;5031897;28;20781;-69
2024/02/09 12:15:08;;;;;;;4.20;1.20;;;14.90;1.00;;;;;;5030148;28;20458;-67
2024/02/09 12:17:34;;;;;;;2.50;1.50;;;14.90;1.00;;;;;;5031517;28;20203;-68
2024/02/09 12:20:07;;;;;;;3.43;1.50;;;14.80;1.00;;;;;;5030402;28;20512;-67
2024/02/09 12:22:34;;;;;;;2.80;1.70;;;14.70;1.00;;;;;;5032031;28;20659;-68
2024/02/09 12:25:01;;;;;;;2.30;1.20;;;14.80;1.00;;;;;;5032052;28;20504;-68
2024/02/09 12:27:27;;;;;;;3.00;1.70;;;14.70;1.00;;;;;;5030408;28;20422;-68
2024/02/09 12:29:54;;;;;;;2.63;1.60;;;14.60;1.00;;;;;;5030550;28;20764;-68
2024/02/09 12:32:20;;;;;;;3.53;2.07;;;14.60;1.00;;;;;;5031761;28;20591;-69
2024/02/09 12:34:50;;;;;;;2.93;1.33;;;14.60;1.00;;;;;;5030327;28;20441;-68
2024/02/09 12:37:17;;;;;;;4.47;2.13;;;14.60;1.00;;;;;;5031469;28;20461;-68
2024/02/09 12:39:49;;;;;;;3.63;1.80;;;14.70;1.00;;;;;;5034314;28;20412;-68
2024/02/09 12:42:18;;;;;;;3.37;2.00;;;14.60;1.00;;;;;;5035173;28;20445;-69
2024/02/09 12:44:49;;;;;;;4.40;2.40;;;14.40;1.00;;;;;;5035032;28;20437;-68
2024/02/09 12:47:16;;;;;;;2.97;1.40;;;14.50;1.00;;;;;;5034899;28;20413;-68
2024/02/09 12:49:43;;;;;;;2.87;1.40;;;14.50;1.00;;;;;;5035066;28;20414;-68
2024/02/09 12:52:14;;;;;;;5.10;1.83;;;14.50;1.00;;;;;;5035314;28;20453;-68
2024/02/09 12:54:43;;;;;;;6.40;2.30;;;14.40;1.00;;;;;;5035077;28;20821;-68
2024/02/09 12:57:10;;;;;;;3.10;1.80;;;14.30;1.00;;;;;;5034523;28;20457;-68
2024/02/09 12:59:36;;;;;;;2.03;1.17;;;14.40;1.00;;;;;;5034962;28;20410;-69
2024/02/09 13:02:04;;;;;;;4.97;1.93;;;14.50;1.00;;;;;;5034888;28;20905;-68
2024/02/09 13:04:31;;;;;;;3.13;1.63;;;14.40;1.00;;;;;;5034898;28;20516;-68
2024/02/09 13:06:56;;;;;;;2.00;1.10;;;14.60;1.00;;;;;;5034663;28;20421;-68
2024/02/09 13:09:22;;;;;;;2.10;1.63;;;14.80;1.00;;;;;;5032516;28;20426;-67
2024/02/09 13:11:51;;;;;;;2.60;1.50;;;14.90;1.00;;;;;;5026108;28;20244;-68
2024/02/09 13:14:21;;;;;;;3.07;1.60;;;14.90;1.00;;;;;;5032911;28;20647;-68
2024/02/09 13:16:48;;;;;;;1.83;1.30;;;14.90;1.00;;;;;;5034261;28;20409;-68
2024/02/09 13:19:18;;;;;;;4.73;1.97;;;15.10;1.00;;;;;;5035350;28;20429;-70
2024/02/09 13:21:44;;;;;;;4.07;1.97;;;15.30;1.00;;;;;;5037934;28;20437;-69
2024/02/09 13:24:09;;;;;;;2.27;1.40;;;15.20;1.00;;;;;;5031219;28;20453;-69
2024/02/09 13:26:35;;;;;;;3.20;1.57;;;15.30;1.00;;;;;;5034785;28;20414;-67
2024/02/09 13:29:04;;;;;;;6.90;2.03;;;15.40;1.00;;;;;;5031985;28;20199;-68
2024/02/09 13:31:32;;;;;;;3.20;2.00;;;15.60;1.00;;;;;;5029952;28;20179;-67
2024/02/09 13:33:59;;;;;;;4.50;1.77;;;15.50;1.00;;;;;;5029033;28;20438;-68
2024/02/09 13:36:25;;;;;;;3.07;1.67;;;15.70;1.00;;;;;;5030973;28;20960;-68
2024/02/09 13:38:51;;;;;;;3.93;1.77;;;15.80;1.00;;;;;;5033203;28;20473;-68
2024/02/09 13:41:17;;;;;;;5.00;2.67;;;15.90;1.00;;;;;;5034576;28;20414;-69
2024/02/09 13:43:43;;;;;;;8.60;6.37;;;15.70;1.00;;;;;;5034675;28;20410;-68
2024/02/09 13:46:08;;;;;;;10.40;5.37;;;15.60;1.00;;;;;;5034451;28;20471;-69
2024/02/09 13:48:34;;;;;;;4.57;2.40;;;15.60;1.00;;;;;;5033994;28;20215;-68
2024/02/09 13:51:01;;;;;;;3.93;2.20;;;15.60;1.00;;;;;;5034264;28;20182;-68
2024/02/09 13:53:27;;;;;;;3.50;2.00;;;15.60;1.00;;;;;;5034965;28;20259;-68
2024/02/09 13:55:53;;;;;;;3.43;2.00;;;15.50;1.00;;;;;;5033662;28;20584;-68
2024/02/09 13:58:19;;;;;;;3.37;1.87;;;15.40;1.00;;;;;;5034602;28;20541;-69
2024/02/09 14:00:45;;;;;;;3.70;1.63;;;15.50;1.00;;;;;;5034675;28;20414;-68
2024/02/09 14:03:11;;;;;;;2.70;1.60;;;15.70;1.00;;;;;;5035615;28;20414;-69
2024/02/09 14:05:36;;;;;;;2.83;1.70;;;15.80;1.00;;;;;;5036081;28;20195;-67
2024/02/09 14:08:04;;;;;;;4.30;2.53;;;15.60;1.00;;;;;;5027564;28;20180;-68
2024/02/09 14:10:31;;;;;;;4.33;2.37;;;15.50;1.00;;;;;;5014418;28;20172;-68
2024/02/09 14:12:56;;;;;;;5.00;2.83;;;15.40;1.00;;;;;;5014284;28;20425;-68
2024/02/09 14:15:22;;;;;;;4.20;2.90;;;15.30;1.00;;;;;;5014109;28;20545;-68
2024/02/09 14:17:48;;;;;;;7.10;3.60;;;15.30;1.00;;;;;;5018632;28;20570;-68
2024/02/09 14:20:13;;;;;;;6.77;3.70;;;15.30;1.00;;;;;;5033535;28;20410;-67
2024/02/09 14:22:41;;;;;;;4.93;3.00;;;15.30;1.00;;;;;;5034321;28;20179;-68
2024/02/09 14:25:09;;;;;;;4.63;2.17;;;15.20;1.00;;;;;;5034002;28;20187;-68
2024/02/09 14:27:34;;;;;;;4.90;1.47;;;15.30;1.00;;;;;;5031530;28;20972;-69
2024/02/09 14:30:00;;;;;;;5.30;2.73;;;15.20;1.00;;;;;;5014205;28;20427;-68
2024/02/09 14:32:26;;;;;;;5.23;2.13;;;15.30;1.00;;;;;;5014464;28;20188;-67
2024/02/09 14:34:51;;;;;;;3.33;1.90;;;15.20;1.00;;;;;;5016240;28;20215;-67
2024/02/09 14:37:18;;;;;;;3.20;1.67;;;15.20;1.00;;;;;;5013511;28;20200;-67
2024/02/09 14:39:44;;;;;;;4.93;2.40;;;15.20;1.00;;;;;;5013665;28;20172;-68
2024/02/09 14:42:11;;;;;;;4.20;3.03;;;15.10;1.00;;;;;;5015677;28;20418;-68
2024/02/09 14:44:42;;;;;;;3.00;2.00;;;15.00;1.00;;;;;;5012200;28;20437;-68